Bandido — WDC5350 — position and weather

sailwx.info

Track history (hours):
 
Tides and Currents Weather Stations Pressure Air Temp Water Temp Dewpoint Dewpoint Depression Visibility Wind Speed Wind Dir Waves Ship Positions

Bandido

Owner: Seidner, Murrey, Raleigh, NC. More information available from US FCC via Universal Licensing System.

Last reported at 2016-Sep-21 09:25 UTC. Time now 2016-Sep-29 17:04 UTC.
Position N 26°05' W 080°11'.
Warning: this ship's position is 8 days out of date.

; draft 2 m.

Type: Pleasure craft. MMSI: 367039780.

Date/timePositionNaut miles runAvg speedWind from/ knotsBaromVisibWave heightAir tempDewpointWater temp
2016-Sep-21 09:25N 26°05' W 080°11'0 0.0
2016-Sep-21 08:25N 26°05' W 080°11'0 0.0
2016-Sep-21 03:31N 26°05' W 080°11'0 0.0
2016-Sep-21 02:31N 26°05' W 080°11'0 0.0
2016-Sep-20 17:25N 26°05' W 080°11'10 3.5
2016-Sep-20 14:33N 26°12' W 080°02'1211.7
2016-Sep-20 13:33N 26°24' W 080°01'3511.6
2016-Sep-20 10:33N 26°58' W 079°59'49310.3
2016-Sep-18 10:33N 34°38' W 076°33'0 0.3
2016-Sep-18 09:33N 34°38' W 076°33'0 0.0
2016-Sep-18 02:33N 34°38' W 076°33'0 0.0
2016-Sep-18 01:33N 34°38' W 076°33'0 0.0
2016-Sep-18 00:33N 34°38' W 076°33'0 0.0
2016-Sep-17 22:33N 34°38' W 076°33'0 0.0
2016-Sep-17 21:33N 34°38' W 076°33'0 0.0
2016-Sep-17 20:33N 34°38' W 076°33'0 0.0
2016-Sep-17 19:15N 34°38' W 076°33'0 0.0
2016-Sep-17 13:33N 34°38' W 076°33'0 0.0
2016-Sep-17 12:33N 34°38' W 076°33'0 0.0
2016-Sep-17 10:33N 34°38' W 076°33'0 0.0
2016-Sep-17 09:33N 34°38' W 076°33'0 0.0
2016-Sep-17 08:33N 34°38' W 076°33'0 0.0
2016-Sep-17 07:33N 34°38' W 076°33'0 0.0
2016-Sep-17 05:33N 34°38' W 076°33'0 0.0
2016-Sep-17 04:33N 34°38' W 076°33'0 0.0
2016-Sep-17 00:33N 34°38' W 076°33'0 0.0
2016-Sep-16 17:33N 34°38' W 076°33'0 0.0
2016-Sep-16 15:33N 34°38' W 076°33'0 0.0
2016-Sep-16 12:33N 34°38' W 076°33'0 0.0
2016-Sep-16 09:33N 34°38' W 076°33'0 0.0
2016-Sep-16 07:33N 34°38' W 076°33'0 0.0
2016-Sep-16 03:33N 34°38' W 076°33'0 0.0
2016-Sep-16 02:33N 34°38' W 076°33'0 0.0
2016-Sep-16 00:31N 34°37' W 076°33'0 0.0
2016-Sep-15 22:31N 34°37' W 076°33'0 0.1
2016-Sep-15 21:33N 34°38' W 076°33'0 0.0
2016-Sep-15 20:33N 34°38' W 076°33'0 0.0
2016-Sep-15 18:33N 34°38' W 076°33'0 0.0
2016-Sep-15 12:33N 34°38' W 076°33'1 1.5
2016-Sep-15 11:33N 34°38' W 076°34'1 0.2
2016-Sep-15 04:31N 34°38' W 076°33'5 5.0
2016-Sep-15 03:33N 34°33' W 076°33'186 9.3
2016-Sep-14 07:33N 37°10' W 074°32'1111.1
2016-Sep-14 06:33N 37°17' W 074°21'3411.4
2016-Sep-14 03:33N 37°36' W 073°45'  
Track history (hours):
 
Tides and Currents Weather Stations Pressure Air Temp Water Temp Dewpoint Dewpoint Depression Visibility Wind Speed Wind Dir Waves Ship Positions

Bandido

Owner: Seidner, Murrey, Raleigh, NC. More information available from US FCC via Universal Licensing System.

Last reported at 2016-Sep-21 09:25 UTC. Time now 2016-Sep-29 17:04 UTC.
Position N 26°05' W 080°11'.
Warning: this ship's position is 8 days out of date.

; draft 2 m.

Type: Pleasure craft. MMSI: 367039780.

Date/timePositionNaut miles runAvg speedWind from/ knotsBaromVisibWave heightAir tempDewpointWater temp
2016-Sep-21 09:25N 26°05' W 080°11'0 0.0
2016-Sep-21 08:25N 26°05' W 080°11'0 0.0
2016-Sep-21 03:31N 26°05' W 080°11'0 0.0
2016-Sep-21 02:31N 26°05' W 080°11'0 0.0
2016-Sep-20 17:25N 26°05' W 080°11'10 3.5
2016-Sep-20 14:33N 26°12' W 080°02'1211.7
2016-Sep-20 13:33N 26°24' W 080°01'3511.6
2016-Sep-20 10:33N 26°58' W 079°59'49310.3
2016-Sep-18 10:33N 34°38' W 076°33'0 0.3
2016-Sep-18 09:33N 34°38' W 076°33'0 0.0
2016-Sep-18 02:33N 34°38' W 076°33'0 0.0
2016-Sep-18 01:33N 34°38' W 076°33'0 0.0
2016-Sep-18 00:33N 34°38' W 076°33'0 0.0
2016-Sep-17 22:33N 34°38' W 076°33'0 0.0
2016-Sep-17 21:33N 34°38' W 076°33'0 0.0
2016-Sep-17 20:33N 34°38' W 076°33'0 0.0
2016-Sep-17 19:15N 34°38' W 076°33'0 0.0
2016-Sep-17 13:33N 34°38' W 076°33'0 0.0
2016-Sep-17 12:33N 34°38' W 076°33'0 0.0
2016-Sep-17 10:33N 34°38' W 076°33'0 0.0
2016-Sep-17 09:33N 34°38' W 076°33'0 0.0
2016-Sep-17 08:33N 34°38' W 076°33'0 0.0
2016-Sep-17 07:33N 34°38' W 076°33'0 0.0
2016-Sep-17 05:33N 34°38' W 076°33'0 0.0
2016-Sep-17 04:33N 34°38' W 076°33'0 0.0
2016-Sep-17 00:33N 34°38' W 076°33'0 0.0
2016-Sep-16 17:33N 34°38' W 076°33'0 0.0
2016-Sep-16 15:33N 34°38' W 076°33'0 0.0
2016-Sep-16 12:33N 34°38' W 076°33'0 0.0
2016-Sep-16 09:33N 34°38' W 076°33'0 0.0
2016-Sep-16 07:33N 34°38' W 076°33'0 0.0
2016-Sep-16 03:33N 34°38' W 076°33'0 0.0
2016-Sep-16 02:33N 34°38' W 076°33'0 0.0
2016-Sep-16 00:31N 34°37' W 076°33'0 0.0
2016-Sep-15 22:31N 34°37' W 076°33'0 0.1
2016-Sep-15 21:33N 34°38' W 076°33'0 0.0
2016-Sep-15 20:33N 34°38' W 076°33'0 0.0
2016-Sep-15 18:33N 34°38' W 076°33'0 0.0
2016-Sep-15 12:33N 34°38' W 076°33'1 1.5
2016-Sep-15 11:33N 34°38' W 076°34'1 0.2
2016-Sep-15 04:31N 34°38' W 076°33'5 5.0
2016-Sep-15 03:33N 34°33' W 076°33'186 9.3
2016-Sep-14 07:33N 37°10' W 074°32'1111.1
2016-Sep-14 06:33N 37°17' W 074°21'3411.4
2016-Sep-14 03:33N 37°36' W 073°45'  

Dump ship's entire track history